createdAt,value
2017-06-29T00:00:44.805Z,0
2017-06-29T00:01:44.858Z,0
2017-06-29T00:02:44.912Z,0
2017-06-29T00:03:44.967Z,0
2017-06-29T00:04:45.020Z,0
2017-06-29T00:05:45.077Z,0
2017-06-29T00:06:45.127Z,0
2017-06-29T00:07:45.181Z,0
2017-06-29T00:08:45.233Z,0
2017-06-29T00:09:44.990Z,0
2017-06-29T00:10:45.340Z,0
2017-06-29T00:11:45.391Z,0
2017-06-29T00:12:45.459Z,0
2017-06-29T00:13:45.504Z,0
2017-06-29T00:14:45.560Z,0
2017-06-29T00:15:45.620Z,0
2017-06-29T00:16:45.663Z,0
2017-06-29T00:17:45.721Z,0
2017-06-29T00:18:45.772Z,0
2017-06-29T00:19:45.831Z,0
2017-06-29T00:20:45.888Z,0
2017-06-29T00:21:45.664Z,0
2017-06-29T00:22:45.997Z,0
2017-06-29T00:23:46.044Z,0
2017-06-29T00:24:46.097Z,0
2017-06-29T00:25:46.153Z,0
2017-06-29T00:26:46.206Z,0
2017-06-29T00:27:46.264Z,0
2017-06-29T00:28:46.317Z,0
2017-06-29T00:29:46.375Z,0
2017-06-29T00:30:46.423Z,0
2017-06-29T00:31:46.474Z,0
2017-06-29T00:32:46.531Z,0
2017-06-29T00:33:46.589Z,0
2017-06-29T00:34:46.645Z,0
2017-06-29T00:35:46.698Z,0
2017-06-29T00:36:46.743Z,0
2017-06-29T00:37:46.801Z,0
2017-06-29T00:38:46.851Z,0
2017-06-29T00:39:46.902Z,0
2017-06-29T00:40:46.961Z,0
2017-06-29T00:41:47.013Z,0
2017-06-29T00:42:47.071Z,0
2017-06-29T00:43:47.131Z,0
2017-06-29T00:44:47.174Z,0
2017-06-29T00:45:47.232Z,0
2017-06-29T00:46:47.285Z,0
2017-06-29T00:47:47.340Z,0
2017-06-29T00:48:47.396Z,0
2017-06-29T00:49:47.447Z,0
2017-06-29T00:50:47.500Z,0
2017-06-29T00:51:47.557Z,0
2017-06-29T00:52:47.609Z,0
2017-06-29T00:53:47.661Z,0
2017-06-29T00:54:47.716Z,0
2017-06-29T00:55:47.770Z,0
2017-06-29T00:56:47.829Z,0
2017-06-29T00:57:47.890Z,0
2017-06-29T00:58:47.935Z,0
2017-06-29T00:59:47.989Z,0
2017-06-29T01:00:48.041Z,0
2017-06-29T01:01:48.093Z,0
2017-06-29T01:02:48.148Z,0
2017-06-29T01:03:48.206Z,0
2017-06-29T01:04:48.259Z,0
2017-06-29T01:05:48.310Z,0
2017-06-29T01:06:48.364Z,0
2017-06-29T01:07:48.116Z,0
2017-06-29T01:08:48.472Z,0
2017-06-29T01:09:48.527Z,0
2017-06-29T01:10:48.585Z,0
2017-06-29T01:11:48.632Z,0
2017-06-29T01:12:48.693Z,0
2017-06-29T01:13:48.764Z,0
2017-06-29T01:14:48.802Z,0
2017-06-29T01:15:48.853Z,0
2017-06-29T01:16:48.910Z,0
2017-06-29T01:17:48.958Z,0
2017-06-29T01:18:48.713Z,0
2017-06-29T01:19:49.066Z,0
2017-06-29T01:20:49.119Z,0
2017-06-29T01:21:49.180Z,0
2017-06-29T01:22:49.230Z,0
2017-06-29T01:23:49.288Z,0
2017-06-29T01:24:49.337Z,0
2017-06-29T01:25:49.386Z,0
2017-06-29T01:26:49.143Z,0
2017-06-29T01:27:49.495Z,0
2017-06-29T01:28:49.555Z,0
2017-06-29T01:29:49.612Z,0
2017-06-29T01:30:49.661Z,0
2017-06-29T01:31:49.719Z,0
2017-06-29T01:32:49.467Z,0
2017-06-29T01:33:49.826Z,0
2017-06-29T01:34:49.880Z,0
2017-06-29T01:35:49.933Z,0
2017-06-29T01:36:49.988Z,0
2017-06-29T01:37:50.040Z,0
2017-06-29T01:38:50.098Z,0
2017-06-29T01:39:50.151Z,0
2017-06-29T01:40:50.209Z,0
2017-06-29T01:41:50.259Z,0
2017-06-29T01:42:50.314Z,0
2017-06-29T01:43:50.372Z,0
2017-06-29T01:44:50.422Z,0
2017-06-29T01:45:50.480Z,0
2017-06-29T01:46:50.533Z,0
2017-06-29T01:47:50.582Z,0
2017-06-29T01:48:50.640Z,0
2017-06-29T01:49:50.692Z,0
2017-06-29T01:50:50.742Z,0
2017-06-29T01:51:50.797Z,0
2017-06-29T01:52:50.854Z,0
2017-06-29T01:53:50.909Z,0
2017-06-29T01:54:50.959Z,0
2017-06-29T01:55:51.017Z,0
2017-06-29T01:56:51.070Z,0
2017-06-29T01:57:51.128Z,0
2017-06-29T01:58:51.189Z,0
2017-06-29T01:59:51.237Z,0
2017-06-29T02:00:51.285Z,0
2017-06-29T02:01:51.343Z,0
2017-06-29T02:02:51.392Z,0
2017-06-29T02:03:51.448Z,0
2017-06-29T02:04:51.502Z,0
2017-06-29T02:05:51.557Z,0
2017-06-29T02:06:51.809Z,0
2017-06-29T02:07:51.362Z,0
2017-06-29T02:08:51.722Z,0
2017-06-29T02:09:51.776Z,0
2017-06-29T02:10:51.824Z,0
2017-06-29T02:11:52.079Z,0
2017-06-29T02:12:51.929Z,0
2017-06-29T02:13:51.988Z,0
2017-06-29T02:14:52.042Z,0
2017-06-29T02:15:52.094Z,0
2017-06-29T02:16:52.150Z,0
2017-06-29T02:17:52.207Z,0
2017-06-29T02:18:52.264Z,0
2017-06-29T02:19:52.311Z,0
2017-06-29T02:20:52.365Z,0
2017-06-29T02:21:52.416Z,0
2017-06-29T02:22:52.471Z,0
2017-06-29T02:23:52.228Z,0
2017-06-29T02:24:52.576Z,0
2017-06-29T02:25:52.631Z,0
2017-06-29T02:26:52.687Z,0
2017-06-29T02:27:52.741Z,0
2017-06-29T02:28:52.789Z,0
2017-06-29T02:29:52.856Z,0
2017-06-29T02:30:52.899Z,0
2017-06-29T02:31:52.957Z,0
2017-06-29T02:32:53.012Z,0
2017-06-29T02:33:53.062Z,0
2017-06-29T02:34:53.120Z,0
2017-06-29T02:35:52.867Z,0
2017-06-29T02:36:53.425Z,0
2017-06-29T02:37:53.279Z,0
2017-06-29T02:38:53.331Z,0
2017-06-29T02:39:53.390Z,0
2017-06-29T02:40:53.441Z,0
2017-06-29T02:41:53.495Z,0
2017-06-29T02:42:53.749Z,0
2017-06-29T02:43:53.602Z,0
2017-06-29T02:44:53.657Z,0
2017-06-29T02:45:53.718Z,0
2017-06-29T02:47:07.402Z,0
2017-06-29T02:47:53.819Z,0
2017-06-29T02:48:53.874Z,0
2017-06-29T02:49:53.968Z,0
2017-06-29T02:50:53.979Z,0
2017-06-29T02:51:54.033Z,0
2017-06-29T02:52:54.097Z,0
2017-06-29T02:53:54.144Z,0
2017-06-29T02:54:54.196Z,0
2017-06-29T02:55:54.251Z,0
2017-06-29T02:56:54.302Z,0
2017-06-29T02:57:54.357Z,0
2017-06-29T02:58:54.412Z,0
2017-06-29T02:59:54.466Z,0
2017-06-29T03:00:54.523Z,0
2017-06-29T03:01:54.570Z,0
2017-06-29T03:02:54.332Z,0
2017-06-29T03:03:54.686Z,0
2017-06-29T03:04:54.735Z,0
2017-06-29T03:05:54.792Z,0
2017-06-29T03:06:54.842Z,0
2017-06-29T03:07:54.903Z,0
2017-06-29T03:08:54.952Z,0
2017-06-29T03:09:55.006Z,0
2017-06-29T03:10:55.055Z,0
2017-06-29T03:11:55.112Z,0
2017-06-29T03:12:55.165Z,0
2017-06-29T03:13:55.219Z,0
2017-06-29T03:14:55.280Z,0
2017-06-29T03:15:55.332Z,0
2017-06-29T03:16:55.621Z,0
2017-06-29T03:17:55.441Z,0
2017-06-29T03:18:55.491Z,0
2017-06-29T03:19:55.546Z,0
2017-06-29T03:20:55.596Z,0
2017-06-29T03:21:55.652Z,0
2017-06-29T03:22:55.706Z,0
2017-06-29T03:23:55.759Z,0
2017-06-29T03:24:55.815Z,0
2017-06-29T03:25:55.866Z,0
2017-06-29T03:26:55.922Z,4
2017-06-29T03:27:55.976Z,4
2017-06-29T03:28:56.042Z,4
2017-06-29T03:29:55.782Z,4
2017-06-29T03:30:56.141Z,4
2017-06-29T03:31:56.197Z,4
2017-06-29T03:32:56.245Z,4
2017-06-29T03:33:56.297Z,4
2017-06-29T03:34:56.053Z,4
2017-06-29T03:35:56.108Z,4
2017-06-29T03:36:56.461Z,4
2017-06-29T03:37:56.517Z,0
2017-06-29T03:38:56.570Z,4
2017-06-29T03:39:56.627Z,4
2017-06-29T03:40:56.675Z,4
2017-06-29T03:41:56.728Z,4
2017-06-29T03:42:56.786Z,4
2017-06-29T03:43:56.840Z,4
2017-06-29T03:44:56.890Z,4
2017-06-29T03:45:56.942Z,4
2017-06-29T03:46:57.002Z,4
2017-06-29T03:47:57.055Z,8
2017-06-29T03:48:57.114Z,4
2017-06-29T03:49:57.200Z,4
2017-06-29T03:50:57.219Z,4
2017-06-29T03:51:57.480Z,4
2017-06-29T03:52:57.525Z,4
2017-06-29T03:54:12.004Z,4
2017-06-29T03:54:57.429Z,4
2017-06-29T03:55:57.486Z,4
2017-06-29T03:56:57.540Z,4
2017-06-29T03:57:57.594Z,4
2017-06-29T03:58:57.649Z,4
2017-06-29T03:59:57.706Z,4
2017-06-29T04:00:57.757Z,4
2017-06-29T04:01:57.815Z,4
2017-06-29T04:02:57.563Z,4
2017-06-29T04:03:57.915Z,4
2017-06-29T04:04:57.970Z,4
2017-06-29T04:05:58.025Z,4
2017-06-29T04:06:58.080Z,4
2017-06-29T04:07:58.131Z,4
2017-06-29T04:08:58.182Z,4
2017-06-29T04:09:58.237Z,4
2017-06-29T04:10:58.290Z,4
2017-06-29T04:11:58.349Z,8
2017-06-29T04:12:58.406Z,8
2017-06-29T04:13:58.456Z,4
2017-06-29T04:14:58.511Z,4
2017-06-29T04:15:58.566Z,8
2017-06-29T04:16:58.613Z,4
2017-06-29T04:17:58.675Z,4
2017-06-29T04:18:58.727Z,4
2017-06-29T04:19:58.779Z,8
2017-06-29T04:20:58.841Z,8
2017-06-29T04:21:59.099Z,8
2017-06-29T04:22:59.143Z,8
2017-06-29T04:23:58.999Z,4
2017-06-29T04:24:59.046Z,4
2017-06-29T04:25:59.105Z,8
2017-06-29T04:26:59.368Z,8
2017-06-29T04:27:59.423Z,12
2017-06-29T04:28:59.267Z,8
2017-06-29T04:29:59.321Z,12
2017-06-29T04:30:59.369Z,8
2017-06-29T04:31:59.422Z,8
2017-06-29T04:32:59.484Z,8
2017-06-29T04:33:59.539Z,8
2017-06-29T04:34:59.594Z,8
2017-06-29T04:35:59.641Z,12
2017-06-29T04:36:59.701Z,8
2017-06-29T04:37:59.752Z,12
2017-06-29T04:38:59.811Z,12
2017-06-29T04:39:59.863Z,12
2017-06-29T04:40:59.915Z,8
2017-06-29T04:41:59.973Z,12
2017-06-29T04:43:00.025Z,12
2017-06-29T04:44:00.076Z,12
2017-06-29T04:45:00.129Z,12
2017-06-29T04:46:00.188Z,12
2017-06-29T04:47:00.242Z,12
2017-06-29T04:48:00.296Z,16
2017-06-29T04:49:00.352Z,12
2017-06-29T04:50:00.415Z,16
2017-06-29T04:51:00.459Z,16
2017-06-29T04:52:00.507Z,16
2017-06-29T04:53:00.565Z,20
2017-06-29T04:54:00.623Z,20
2017-06-29T04:55:00.678Z,24
2017-06-29T04:56:00.729Z,24
2017-06-29T04:57:00.792Z,32
2017-06-29T04:58:00.842Z,32
2017-06-29T04:59:00.893Z,36
2017-06-29T05:00:00.947Z,36
2017-06-29T05:01:00.700Z,36
2017-06-29T05:02:01.256Z,36
2017-06-29T05:03:01.110Z,36
2017-06-29T05:04:01.161Z,40
2017-06-29T05:05:01.217Z,40
2017-06-29T05:06:01.272Z,40
2017-06-29T05:07:01.336Z,44
2017-06-29T05:08:16.015Z,52
2017-06-29T05:09:01.128Z,44
2017-06-29T05:10:01.489Z,48
2017-06-29T05:11:01.541Z,48
2017-06-29T05:12:01.596Z,56
2017-06-29T05:13:01.648Z,52
2017-06-29T05:14:01.704Z,52
2017-06-29T05:15:01.759Z,52
2017-06-29T05:16:01.813Z,56
2017-06-29T05:17:01.866Z,52
2017-06-29T05:18:01.924Z,48
2017-06-29T05:19:02.013Z,44
2017-06-29T05:20:02.033Z,52
2017-06-29T05:21:02.087Z,56
2017-06-29T05:22:02.143Z,60
2017-06-29T05:23:02.194Z,56
2017-06-29T05:24:02.243Z,64
2017-06-29T05:25:02.296Z,64
2017-06-29T05:26:02.354Z,60
2017-06-29T05:27:02.404Z,64
2017-06-29T05:28:02.458Z,64
2017-06-29T05:29:02.516Z,68
2017-06-29T05:30:02.572Z,72
2017-06-29T05:31:02.623Z,72
2017-06-29T05:32:02.678Z,80
2017-06-29T05:33:02.739Z,76
2017-06-29T05:34:02.783Z,72
2017-06-29T05:35:02.835Z,64
2017-06-29T05:36:02.893Z,76
2017-06-29T05:37:02.947Z,72
2017-06-29T05:38:02.701Z,76
2017-06-29T05:39:03.054Z,76
2017-06-29T05:40:02.805Z,72
2017-06-29T05:41:03.159Z,72
2017-06-29T05:42:03.211Z,72
2017-06-29T05:43:03.268Z,64
2017-06-29T05:44:03.323Z,56
2017-06-29T05:45:03.382Z,60
2017-06-29T05:46:03.433Z,60
2017-06-29T05:47:03.483Z,60
2017-06-29T05:48:03.547Z,60
2017-06-29T05:49:03.595Z,56
2017-06-29T05:50:03.649Z,60
2017-06-29T05:51:03.702Z,64
2017-06-29T05:52:03.756Z,68
2017-06-29T05:53:03.809Z,64
2017-06-29T05:54:03.858Z,60
2017-06-29T05:55:03.918Z,64
2017-06-29T05:56:03.973Z,68
2017-06-29T05:57:03.722Z,68
2017-06-29T05:58:04.080Z,64
2017-06-29T05:59:04.133Z,68
2017-06-29T06:00:04.205Z,68
2017-06-29T06:01:04.242Z,64
2017-06-29T06:02:04.292Z,64
2017-06-29T06:03:04.347Z,64
2017-06-29T06:04:04.403Z,64
2017-06-29T06:05:04.458Z,60
2017-06-29T06:06:04.506Z,64
2017-06-29T06:07:04.564Z,60
2017-06-29T06:08:04.617Z,60
2017-06-29T06:09:04.676Z,68
2017-06-29T06:10:04.725Z,68
2017-06-29T06:11:04.477Z,68
2017-06-29T06:12:04.532Z,64
2017-06-29T06:13:04.895Z,56
2017-06-29T06:14:04.938Z,52
2017-06-29T06:15:05.000Z,48
2017-06-29T06:18:38.180Z,60
2017-06-29T06:19:05.213Z,56
2017-06-29T06:20:04.963Z,52
2017-06-29T06:21:05.326Z,52
2017-06-29T06:22:05.375Z,52
2017-06-29T06:23:05.126Z,56
2017-06-29T06:24:05.481Z,56
2017-06-29T06:25:04.929Z,52
2017-06-29T06:26:05.287Z,56
2017-06-29T06:27:05.642Z,60
2017-06-29T06:28:05.717Z,60
2017-06-29T06:29:05.754Z,56
2017-06-29T06:30:05.807Z,56
2017-06-29T06:31:05.562Z,64
2017-06-29T06:32:05.917Z,56
2017-06-29T06:33:05.971Z,56
2017-06-29T06:34:06.025Z,64
2017-06-29T06:35:06.081Z,72
2017-06-29T06:36:06.139Z,84
2017-06-29T06:37:06.191Z,92
2017-06-29T06:38:06.241Z,92
2017-06-29T06:39:06.296Z,92
2017-06-29T06:40:06.044Z,96
2017-06-29T06:41:06.100Z,108
2017-06-29T06:42:06.480Z,128
2017-06-29T06:43:06.519Z,120
2017-06-29T06:44:06.583Z,108
2017-06-29T06:45:06.318Z,100
2017-06-29T06:46:06.677Z,92
2017-06-29T06:47:06.729Z,92
2017-06-29T06:48:06.782Z,92
2017-06-29T06:49:06.834Z,96
2017-06-29T06:50:06.892Z,96
2017-06-29T06:51:06.942Z,92
2017-06-29T06:52:06.993Z,84
2017-06-29T06:53:07.051Z,88
2017-06-29T06:54:06.803Z,96
2017-06-29T06:55:07.162Z,92
2017-06-29T06:56:07.210Z,88
2017-06-29T06:57:07.267Z,96
2017-06-29T06:58:07.016Z,96
2017-06-29T06:59:07.375Z,100
2017-06-29T07:00:07.428Z,104
2017-06-29T07:01:07.479Z,112
2017-06-29T07:02:07.535Z,120
2017-06-29T07:03:07.593Z,112
2017-06-29T07:04:07.344Z,120
2017-06-29T07:05:07.698Z,116
2017-06-29T07:06:07.754Z,128
2017-06-29T07:07:07.809Z,136
2017-06-29T07:08:07.866Z,132
2017-06-29T07:09:07.611Z,136
2017-06-29T07:10:07.968Z,136
2017-06-29T07:11:07.751Z,140
2017-06-29T07:12:08.111Z,132
2017-06-29T07:13:08.136Z,128
2017-06-29T07:14:08.186Z,136
2017-06-29T07:15:08.241Z,164
2017-06-29T07:16:08.297Z,148
2017-06-29T07:17:08.347Z,152
2017-06-29T07:18:08.403Z,196
2017-06-29T07:19:08.457Z,156
2017-06-29T07:20:08.512Z,148
2017-06-29T07:21:08.564Z,160
2017-06-29T07:22:08.617Z,148
2017-06-29T07:23:08.673Z,128
2017-06-29T07:24:08.732Z,128
2017-06-29T07:25:08.782Z,116
2017-06-29T07:26:08.854Z,112
2017-06-29T07:27:08.589Z,112
2017-06-29T07:28:08.943Z,112
2017-06-29T07:29:08.696Z,124
2017-06-29T07:30:09.050Z,124
2017-06-29T07:31:09.136Z,124
2017-06-29T07:32:09.160Z,116
2017-06-29T07:33:09.216Z,108
2017-06-29T07:34:08.966Z,116
2017-06-29T07:35:08.715Z,132
2017-06-29T07:36:09.080Z,132
2017-06-29T07:37:09.128Z,152
2017-06-29T07:38:09.484Z,148
2017-06-29T07:39:09.538Z,152
2017-06-29T07:40:09.290Z,140
2017-06-29T07:41:09.646Z,140
2017-06-29T07:42:09.700Z,132
2017-06-29T07:43:09.452Z,128
2017-06-29T07:44:09.820Z,128
2017-06-29T07:45:09.865Z,132
2017-06-29T07:46:09.914Z,136
2017-06-29T07:47:09.970Z,124
2017-06-29T07:48:10.026Z,124
2017-06-29T07:49:09.782Z,120
2017-06-29T07:50:10.129Z,120
2017-06-29T07:51:10.186Z,108
2017-06-29T07:52:10.239Z,112
2017-06-29T07:53:10.294Z,120
2017-06-29T07:54:10.350Z,116
2017-06-29T07:55:10.404Z,124
2017-06-29T07:56:10.460Z,132
2017-06-29T07:57:10.214Z,124
2017-06-29T07:58:10.567Z,128
2017-06-29T07:59:10.625Z,136
2017-06-29T08:00:10.675Z,136
2017-06-29T08:01:10.431Z,148
2017-06-29T08:02:10.792Z,156
2017-06-29T08:03:10.840Z,156
2017-06-29T08:04:10.892Z,144
2017-06-29T08:05:10.947Z,136
2017-06-29T08:06:11.002Z,136
2017-06-29T08:07:11.057Z,156
2017-06-29T08:08:11.109Z,156
2017-06-29T08:09:11.166Z,152
2017-06-29T08:10:11.220Z,152
2017-06-29T08:11:11.273Z,156
2017-06-29T08:12:11.321Z,164
2017-06-29T08:13:11.078Z,184
2017-06-29T08:14:11.431Z,196
2017-06-29T08:15:11.492Z,208
2017-06-29T08:16:11.543Z,212
2017-06-29T08:17:11.599Z,204
2017-06-29T08:18:11.651Z,212
2017-06-29T08:19:11.705Z,212
2017-06-29T08:20:11.763Z,220
2017-06-29T08:21:11.814Z,236
2017-06-29T08:22:11.866Z,276
2017-06-29T08:23:11.922Z,288
2017-06-29T08:24:11.980Z,272
2017-06-29T08:25:12.033Z,272
2017-06-29T08:26:12.090Z,316
2017-06-29T08:27:12.142Z,336
2017-06-29T08:28:12.194Z,292
2017-06-29T08:29:12.244Z,264
2017-06-29T08:30:12.306Z,248
2017-06-29T08:31:12.359Z,240
2017-06-29T08:32:12.412Z,232
2017-06-29T08:33:12.464Z,212
2017-06-29T08:34:12.518Z,204
2017-06-29T08:35:12.575Z,228
2017-06-29T08:36:12.626Z,252
2017-06-29T08:37:12.383Z,252
2017-06-29T08:38:12.738Z,240
2017-06-29T08:39:12.791Z,244
2017-06-29T08:40:12.844Z,232
2017-06-29T08:41:12.902Z,240
2017-06-29T08:42:12.953Z,232
2017-06-29T08:43:13.010Z,224
2017-06-29T08:44:13.063Z,208
2017-06-29T08:45:13.123Z,208
2017-06-29T08:46:13.182Z,244
2017-06-29T08:47:12.925Z,268
2017-06-29T08:48:13.285Z,292
2017-06-29T08:49:12.734Z,280
2017-06-29T08:50:13.427Z,264
2017-06-29T08:51:13.143Z,268
2017-06-29T08:52:13.504Z,304
2017-06-29T08:53:13.557Z,380
2017-06-29T08:54:13.305Z,424
2017-06-29T08:55:13.357Z,444
2017-06-29T08:56:13.718Z,332
2017-06-29T08:57:13.771Z,276
2017-06-29T08:58:13.826Z,312
2017-06-29T08:59:13.887Z,372
2017-06-29T09:00:13.935Z,416
2017-06-29T09:01:13.990Z,472
2017-06-29T09:02:14.045Z,468
2017-06-29T09:03:13.797Z,416
2017-06-29T09:04:14.152Z,396
2017-06-29T09:05:13.908Z,472
2017-06-29T09:06:14.265Z,524
2017-06-29T09:07:14.017Z,528
2017-06-29T09:08:14.069Z,616
2017-06-29T09:09:14.426Z,676
2017-06-29T09:10:14.482Z,576
2017-06-29T09:11:14.537Z,564
2017-06-29T09:12:13.987Z,524
2017-06-29T09:13:14.640Z,512
2017-06-29T09:14:14.397Z,516
2017-06-29T09:15:14.455Z,488
2017-06-29T09:16:14.807Z,444
2017-06-29T09:17:14.568Z,384
2017-06-29T09:18:14.921Z,400
2017-06-29T09:19:14.971Z,420
2017-06-29T09:20:15.027Z,416
2017-06-29T09:21:15.086Z,416
2017-06-29T09:22:15.139Z,424
2017-06-29T09:23:15.189Z,400
2017-06-29T09:24:15.247Z,380
2017-06-29T09:25:15.303Z,376
2017-06-29T09:26:15.054Z,372
2017-06-29T09:27:15.415Z,376
2017-06-29T09:28:15.468Z,380
2017-06-29T09:29:15.523Z,356
2017-06-29T09:30:15.583Z,332
2017-06-29T09:31:15.644Z,308
2017-06-29T09:32:15.393Z,284
2017-06-29T09:33:15.743Z,256
2017-06-29T09:34:15.796Z,268
2017-06-29T09:35:15.852Z,272
2017-06-29T09:36:15.906Z,248
2017-06-29T09:37:15.962Z,240
2017-06-29T09:38:16.023Z,244
2017-06-29T09:39:16.067Z,272
2017-06-29T09:40:16.129Z,332
2017-06-29T09:41:16.187Z,348
2017-06-29T09:42:16.234Z,348
2017-06-29T09:43:16.294Z,324
2017-06-29T09:44:16.347Z,308
2017-06-29T09:45:16.402Z,348
2017-06-29T09:46:16.453Z,380
2017-06-29T09:47:16.210Z,444
2017-06-29T09:48:16.564Z,496
2017-06-29T09:49:16.317Z,540
2017-06-29T09:50:16.674Z,540
2017-06-29T09:51:16.729Z,552
2017-06-29T09:52:16.180Z,612
2017-06-29T09:53:16.839Z,548
2017-06-29T09:54:16.594Z,548
2017-06-29T09:55:16.650Z,612
2017-06-29T09:56:17.003Z,676
2017-06-29T09:57:17.058Z,768
2017-06-29T09:58:17.107Z,748
2017-06-29T09:59:17.173Z,584
2017-06-29T10:00:16.925Z,556
2017-06-29T10:01:16.977Z,560
2017-06-29T10:02:17.330Z,548
2017-06-29T10:03:17.386Z,540
2017-06-29T10:04:17.443Z,480
2017-06-29T10:05:17.499Z,524
2017-06-29T10:06:17.551Z,568
2017-06-29T10:07:17.606Z,556
2017-06-29T10:08:17.658Z,632
2017-06-29T10:09:17.411Z,656
2017-06-29T10:10:17.465Z,700
2017-06-29T10:11:17.829Z,692
2017-06-29T10:12:17.878Z,684
2017-06-29T10:13:17.934Z,648
2017-06-29T10:14:17.990Z,584
2017-06-29T10:15:18.045Z,596
2017-06-29T10:16:18.104Z,592
2017-06-29T10:17:18.151Z,584
2017-06-29T10:18:18.211Z,620
2017-06-29T10:19:17.961Z,624
2017-06-29T10:20:18.014Z,660
2017-06-29T10:21:18.375Z,560
2017-06-29T10:22:18.433Z,560
2017-06-29T10:23:18.487Z,628
2017-06-29T10:24:18.538Z,640
2017-06-29T10:25:18.592Z,500
2017-06-29T10:26:18.648Z,452
2017-06-29T10:27:18.708Z,504
2017-06-29T10:28:18.459Z,636
2017-06-29T10:29:18.814Z,684
2017-06-29T10:30:18.876Z,704
2017-06-29T10:31:18.925Z,748
2017-06-29T10:32:18.978Z,1128
2017-06-29T10:33:19.029Z,1280
2017-06-29T10:34:19.091Z,1292
2017-06-29T10:35:19.175Z,1032
2017-06-29T10:36:19.195Z,1212
2017-06-29T10:37:19.252Z,1024
2017-06-29T10:38:19.305Z,1072
2017-06-29T10:39:19.367Z,1436
2017-06-29T10:40:19.120Z,908
2017-06-29T10:41:19.471Z,1312
2017-06-29T10:42:22.562Z,1252
2017-06-29T10:43:19.590Z,1448
2017-06-29T10:44:19.334Z,1076
2017-06-29T10:45:19.694Z,836
2017-06-29T10:46:19.762Z,1200
2017-06-29T10:47:19.818Z,1508
2017-06-29T10:48:19.876Z,1024
2017-06-29T10:49:19.921Z,1024
2017-06-29T10:50:19.982Z,952
2017-06-29T10:51:20.028Z,988
2017-06-29T10:52:19.774Z,1088
2017-06-29T10:53:20.134Z,1088
2017-06-29T10:54:20.187Z,1128
2017-06-29T10:55:20.250Z,1032
2017-06-29T10:56:20.311Z,932
2017-06-29T10:57:20.389Z,1196
2017-06-29T10:58:20.418Z,1512
2017-06-29T10:59:20.464Z,1232
2017-06-29T11:00:20.531Z,1100
2017-06-29T11:01:20.576Z,1164
2017-06-29T11:02:20.626Z,1064
2017-06-29T11:03:20.681Z,1176
2017-06-29T11:04:20.749Z,1644
2017-06-29T11:05:20.787Z,1124
2017-06-29T11:06:20.861Z,1000
2017-06-29T11:07:20.905Z,1060
2017-06-29T11:08:20.953Z,984
2017-06-29T11:09:21.007Z,912
2017-06-29T11:10:21.077Z,1268
2017-06-29T11:11:21.129Z,1304
2017-06-29T11:12:21.186Z,1104
2017-06-29T11:13:21.234Z,1036
2017-06-29T11:14:21.291Z,916
2017-06-29T11:15:21.351Z,1608
2017-06-29T11:16:21.399Z,848
2017-06-29T11:17:21.448Z,720
2017-06-29T11:18:21.509Z,784
2017-06-29T11:19:21.554Z,1064
2017-06-29T11:20:21.619Z,1452
2017-06-29T11:21:21.670Z,1400
2017-06-29T11:22:21.723Z,888
2017-06-29T11:23:21.778Z,1152
2017-06-29T11:24:21.838Z,876
2017-06-29T11:25:21.898Z,1400
2017-06-29T11:26:21.943Z,1216
2017-06-29T11:27:21.999Z,1180
2017-06-29T11:28:22.059Z,1020
2017-06-29T11:29:22.109Z,812
2017-06-29T11:30:22.162Z,848
2017-06-29T11:31:22.224Z,932
2017-06-29T11:32:22.277Z,1096
2017-06-29T11:33:22.333Z,880
2017-06-29T11:34:22.385Z,1004
2017-06-29T11:35:22.434Z,1272
2017-06-29T11:36:22.491Z,816
2017-06-29T11:37:22.550Z,984
2017-06-29T11:38:22.595Z,1620
2017-06-29T11:39:22.652Z,1560
2017-06-29T11:40:22.719Z,796
2017-06-29T11:41:22.762Z,756
2017-06-29T11:42:22.814Z,884
2017-06-29T11:43:22.863Z,1132
2017-06-29T11:44:22.918Z,1064
2017-06-29T11:45:22.978Z,1104
2017-06-29T11:46:23.033Z,1636
2017-06-29T11:47:23.090Z,1508
2017-06-29T11:48:23.145Z,944
2017-06-29T11:49:22.892Z,1028
2017-06-29T11:50:23.259Z,1180
2017-06-29T11:51:23.307Z,1272
2017-06-29T11:52:23.362Z,916
2017-06-29T11:53:23.413Z,508
2017-06-29T11:54:23.464Z,488
2017-06-29T11:55:23.531Z,468
2017-06-29T11:56:23.271Z,436
2017-06-29T11:57:23.635Z,488
2017-06-29T11:58:23.381Z,476
2017-06-29T11:59:23.750Z,484
2017-06-29T12:00:23.811Z,468
2017-06-29T12:01:23.555Z,548
2017-06-29T12:02:23.911Z,732
2017-06-29T12:03:23.956Z,816
2017-06-29T12:04:24.019Z,768
2017-06-29T12:05:24.081Z,532
2017-06-29T12:06:24.129Z,484
2017-06-29T12:07:24.183Z,448
2017-06-29T12:08:24.228Z,416
2017-06-29T12:09:23.997Z,356
2017-06-29T12:10:24.348Z,308
2017-06-29T12:11:24.409Z,280
2017-06-29T12:12:24.454Z,252
2017-06-29T12:13:24.511Z,224
2017-06-29T12:14:24.559Z,204
2017-06-29T12:15:24.634Z,188
2017-06-29T12:16:24.682Z,192
2017-06-29T12:17:24.731Z,188
2017-06-29T12:18:24.777Z,224
2017-06-29T12:19:24.833Z,228
2017-06-29T12:20:24.904Z,196
2017-06-29T12:21:24.949Z,192
2017-06-29T12:22:24.700Z,208
2017-06-29T12:23:24.450Z,224
2017-06-29T12:24:25.108Z,228
2017-06-29T12:25:25.167Z,188
2017-06-29T12:26:24.922Z,168
2017-06-29T12:27:25.268Z,164
2017-06-29T12:28:25.323Z,168
2017-06-29T12:29:25.389Z,148
2017-06-29T12:30:24.832Z,124
2017-06-29T12:31:25.500Z,96
2017-06-29T12:32:25.552Z,84
2017-06-29T12:33:25.599Z,80
2017-06-29T12:34:25.359Z,72
2017-06-29T12:35:25.713Z,76
2017-06-29T12:36:25.776Z,84
2017-06-29T12:37:25.819Z,76
2017-06-29T12:38:25.871Z,68
2017-06-29T12:39:25.937Z,68
2017-06-29T12:40:25.984Z,60
2017-06-29T12:41:26.037Z,56
2017-06-29T12:42:26.093Z,56
2017-06-29T12:43:26.156Z,48
2017-06-29T12:44:26.206Z,52
2017-06-29T12:45:26.258Z,60
2017-06-29T12:46:26.310Z,72
2017-06-29T12:47:26.376Z,88
2017-06-29T12:48:26.424Z,108
2017-06-29T12:49:26.482Z,124
2017-06-29T12:50:26.533Z,140
2017-06-29T12:51:26.595Z,164
2017-06-29T12:52:26.648Z,188
2017-06-29T12:53:26.395Z,204
2017-06-29T12:54:26.752Z,244
2017-06-29T12:55:26.808Z,272
2017-06-29T12:56:26.862Z,260
2017-06-29T12:57:26.923Z,244
2017-06-29T12:58:26.973Z,252
2017-06-29T12:59:27.028Z,260
2017-06-29T13:00:27.088Z,296
2017-06-29T13:01:27.131Z,240
2017-06-29T13:02:27.191Z,264
2017-06-29T13:03:27.246Z,320
2017-06-29T13:04:27.302Z,304
2017-06-29T13:05:27.045Z,288
2017-06-29T13:06:27.416Z,356
2017-06-29T13:07:27.471Z,360
2017-06-29T13:08:27.520Z,356
2017-06-29T13:09:27.272Z,300
2017-06-29T13:10:27.630Z,260
2017-06-29T13:11:27.677Z,260
2017-06-29T13:12:27.745Z,344
2017-06-29T13:13:27.802Z,412
2017-06-29T13:14:27.849Z,388
2017-06-29T13:15:27.908Z,340
2017-06-29T13:16:27.963Z,316
2017-06-29T13:17:28.013Z,336
2017-06-29T13:18:27.766Z,304
2017-06-29T13:19:28.123Z,296
2017-06-29T13:20:28.185Z,400
2017-06-29T13:21:28.231Z,396
2017-06-29T13:22:28.285Z,388
2017-06-29T13:23:28.352Z,384
2017-06-29T13:24:28.399Z,400
2017-06-29T13:25:28.451Z,380
2017-06-29T13:26:28.204Z,372
2017-06-29T13:27:28.568Z,336
2017-06-29T13:28:28.621Z,340
2017-06-29T13:29:28.674Z,356
2017-06-29T13:30:28.720Z,364
2017-06-29T13:31:28.775Z,384
2017-06-29T13:32:28.842Z,400
2017-06-29T13:33:28.897Z,492
2017-06-29T13:34:28.944Z,560
2017-06-29T13:35:29.026Z,660
2017-06-29T13:36:29.056Z,660
2017-06-29T13:37:29.109Z,664
2017-06-29T13:38:29.159Z,504
2017-06-29T13:39:29.210Z,476
2017-06-29T13:40:29.274Z,528
2017-06-29T13:41:29.330Z,412
2017-06-29T13:42:29.384Z,552
2017-06-29T13:43:29.444Z,540
2017-06-29T13:44:29.499Z,672
2017-06-29T13:45:29.557Z,896
2017-06-29T13:46:29.601Z,928
2017-06-29T13:47:29.666Z,688
2017-06-29T13:48:29.713Z,580
2017-06-29T13:49:29.758Z,624
2017-06-29T13:50:29.826Z,708
2017-06-29T13:51:29.878Z,656
2017-06-29T13:52:29.933Z,632
2017-06-29T13:53:29.993Z,504
2017-06-29T13:54:30.043Z,532
2017-06-29T13:55:30.104Z,604
2017-06-29T13:56:30.150Z,716
2017-06-29T13:57:29.908Z,852
2017-06-29T13:58:30.271Z,540
2017-06-29T13:59:30.313Z,592
2017-06-29T14:00:30.079Z,660
2017-06-29T14:01:30.120Z,796
2017-06-29T14:02:30.484Z,860
2017-06-29T14:03:30.534Z,964
2017-06-29T14:04:30.293Z,756
2017-06-29T14:05:30.655Z,696
2017-06-29T14:06:30.707Z,616
2017-06-29T14:07:30.754Z,632
2017-06-29T14:08:30.812Z,600
2017-06-29T14:09:30.867Z,620
2017-06-29T14:10:30.615Z,568
2017-06-29T14:11:30.985Z,596